sensor_id;sensor_type;location;lat;lon;timestamp;temperature;humidity
3792;DHT22;1911;53.768;11.474;2024-03-29T00:00:53;6.60;99.90
3792;DHT22;1911;53.768;11.474;2024-03-29T00:03:19;6.60;99.90
3792;DHT22;1911;53.768;11.474;2024-03-29T00:05:44;6.70;99.90
3792;DHT22;1911;53.768;11.474;2024-03-29T00:08:10;6.60;99.90
3792;DHT22;1911;53.768;11.474;2024-03-29T00:10:36;6.60;99.90
3792;DHT22;1911;53.768;11.474;2024-03-29T00:13:02;6.50;99.90
3792;DHT22;1911;53.768;11.474;2024-03-29T00:15:28;6.50;99.90
3792;DHT22;1911;53.768;11.474;2024-03-29T00:17:54;6.50;99.90
3792;DHT22;1911;53.768;11.474;2024-03-29T00:20:20;6.50;99.90
3792;DHT22;1911;53.768;11.474;2024-03-29T00:22:47;6.50;99.90
3792;DHT22;1911;53.768;11.474;2024-03-29T00:25:12;6.50;99.90
3792;DHT22;1911;53.768;11.474;2024-03-29T00:27:38;6.50;99.90
3792;DHT22;1911;53.768;11.474;2024-03-29T00:30:04;6.60;99.90
3792;DHT22;1911;53.768;11.474;2024-03-29T00:32:30;6.60;99.90
3792;DHT22;1911;53.768;11.474;2024-03-29T00:34:55;6.60;99.90
3792;DHT22;1911;53.768;11.474;2024-03-29T00:37:23;6.60;99.90
3792;DHT22;1911;53.768;11.474;2024-03-29T00:39:49;6.60;99.90
3792;DHT22;1911;53.768;11.474;2024-03-29T00:42:15;6.70;99.90
3792;DHT22;1911;53.768;11.474;2024-03-29T00:44:42;6.70;99.90
3792;DHT22;1911;53.768;11.474;2024-03-29T00:47:09;6.70;99.90
3792;DHT22;1911;53.768;11.474;2024-03-29T00:49:35;6.70;99.90
3792;DHT22;1911;53.768;11.474;2024-03-29T00:52:02;6.70;99.90
3792;DHT22;1911;53.768;11.474;2024-03-29T00:54:28;6.70;99.90
3792;DHT22;1911;53.768;11.474;2024-03-29T00:56:54;6.70;99.90
3792;DHT22;1911;53.768;11.474;2024-03-29T00:59:19;6.70;99.90
3792;DHT22;1911;53.768;11.474;2024-03-29T01:01:46;6.70;99.90
3792;DHT22;1911;53.768;11.474;2024-03-29T01:04:11;6.70;99.90
3792;DHT22;1911;53.768;11.474;2024-03-29T01:06:38;6.70;99.90
3792;DHT22;1911;53.768;11.474;2024-03-29T01:09:04;6.70;99.90
3792;DHT22;1911;53.768;11.474;2024-03-29T01:11:31;6.80;99.90
3792;DHT22;1911;53.768;11.474;2024-03-29T01:13:56;6.80;99.90
3792;DHT22;1911;53.768;11.474;2024-03-29T01:16:22;6.70;99.90
3792;DHT22;1911;53.768;11.474;2024-03-29T01:18:48;6.70;99.90
3792;DHT22;1911;53.768;11.474;2024-03-29T01:21:14;6.70;99.90
3792;DHT22;1911;53.768;11.474;2024-03-29T01:23:40;6.70;99.90
3792;DHT22;1911;53.768;11.474;2024-03-29T01:26:06;6.70;99.90
3792;DHT22;1911;53.768;11.474;2024-03-29T01:28:32;6.70;99.90
3792;DHT22;1911;53.768;11.474;2024-03-29T01:30:58;6.70;99.90
3792;DHT22;1911;53.768;11.474;2024-03-29T01:33:26;6.70;99.90
3792;DHT22;1911;53.768;11.474;2024-03-29T01:35:53;6.70;99.90
3792;DHT22;1911;53.768;11.474;2024-03-29T01:38:18;6.70;99.90
3792;DHT22;1911;53.768;11.474;2024-03-29T01:40:44;6.70;99.90
3792;DHT22;1911;53.768;11.474;2024-03-29T01:43:10;6.80;99.90
3792;DHT22;1911;53.768;11.474;2024-03-29T01:45:38;6.70;99.90
3792;DHT22;1911;53.768;11.474;2024-03-29T01:48:05;6.80;99.90
3792;DHT22;1911;53.768;11.474;2024-03-29T01:50:32;6.80;99.90
3792;DHT22;1911;53.768;11.474;2024-03-29T01:52:58;6.80;99.90
3792;DHT22;1911;53.768;11.474;2024-03-29T01:55:24;6.80;99.90
3792;DHT22;1911;53.768;11.474;2024-03-29T01:57:52;6.70;99.90
3792;DHT22;1911;53.768;11.474;2024-03-29T02:00:19;6.80;99.90
3792;DHT22;1911;53.768;11.474;2024-03-29T02:02:45;6.80;99.90
3792;DHT22;1911;53.768;11.474;2024-03-29T02:05:11;6.80;99.90
3792;DHT22;1911;53.768;11.474;2024-03-29T02:07:37;6.60;99.90
3792;DHT22;1911;53.768;11.474;2024-03-29T02:10:04;6.80;99.90
3792;DHT22;1911;53.768;11.474;2024-03-29T02:12:31;6.70;99.90
3792;DHT22;1911;53.768;11.474;2024-03-29T02:14:56;6.70;99.90
3792;DHT22;1911;53.768;11.474;2024-03-29T02:17:23;6.60;99.90
3792;DHT22;1911;53.768;11.474;2024-03-29T02:19:49;6.50;99.90
3792;DHT22;1911;53.768;11.474;2024-03-29T02:22:15;6.50;99.90
3792;DHT22;1911;53.768;11.474;2024-03-29T02:24:41;6.40;99.90
3792;DHT22;1911;53.768;11.474;2024-03-29T02:27:07;6.40;99.90
3792;DHT22;1911;53.768;11.474;2024-03-29T02:29:35;6.40;99.90
3792;DHT22;1911;53.768;11.474;2024-03-29T02:32:03;6.40;99.90
3792;DHT22;1911;53.768;11.474;2024-03-29T02:34:29;6.30;99.90
3792;DHT22;1911;53.768;11.474;2024-03-29T02:36:54;6.30;99.90
3792;DHT22;1911;53.768;11.474;2024-03-29T02:39:20;6.30;99.90
3792;DHT22;1911;53.768;11.474;2024-03-29T02:41:45;6.30;99.90
3792;DHT22;1911;53.768;11.474;2024-03-29T02:44:11;6.30;99.90
3792;DHT22;1911;53.768;11.474;2024-03-29T02:46:37;6.30;99.90
3792;DHT22;1911;53.768;11.474;2024-03-29T02:49:02;6.30;99.90
3792;DHT22;1911;53.768;11.474;2024-03-29T02:51:28;6.40;99.90
3792;DHT22;1911;53.768;11.474;2024-03-29T02:53:54;6.30;99.90
3792;DHT22;1911;53.768;11.474;2024-03-29T02:56:19;6.40;99.90
3792;DHT22;1911;53.768;11.474;2024-03-29T02:58:48;6.40;99.90
3792;DHT22;1911;53.768;11.474;2024-03-29T03:01:13;6.40;99.90
3792;DHT22;1911;53.768;11.474;2024-03-29T03:03:39;6.40;99.90
3792;DHT22;1911;53.768;11.474;2024-03-29T03:06:04;6.50;99.90
3792;DHT22;1911;53.768;11.474;2024-03-29T03:08:30;6.50;99.90
3792;DHT22;1911;53.768;11.474;2024-03-29T03:11:14;6.50;99.90
3792;DHT22;1911;53.768;11.474;2024-03-29T03:13:40;6.50;99.90
3792;DHT22;1911;53.768;11.474;2024-03-29T03:16:06;6.50;99.90
3792;DHT22;1911;53.768;11.474;2024-03-29T03:18:31;6.50;99.90
3792;DHT22;1911;53.768;11.474;2024-03-29T03:20:57;6.50;99.90
3792;DHT22;1911;53.768;11.474;2024-03-29T03:23:26;6.40;99.90
3792;DHT22;1911;53.768;11.474;2024-03-29T03:26:00;6.40;99.90
3792;DHT22;1911;53.768;11.474;2024-03-29T03:28:26;6.40;99.90
3792;DHT22;1911;53.768;11.474;2024-03-29T03:30:53;6.40;99.90
3792;DHT22;1911;53.768;11.474;2024-03-29T03:33:20;6.30;99.90
3792;DHT22;1911;53.768;11.474;2024-03-29T03:35:46;6.30;99.90
3792;DHT22;1911;53.768;11.474;2024-03-29T03:38:12;6.30;99.90
3792;DHT22;1911;53.768;11.474;2024-03-29T03:40:38;6.20;99.90
3792;DHT22;1911;53.768;11.474;2024-03-29T03:43:04;6.20;99.90
3792;DHT22;1911;53.768;11.474;2024-03-29T03:45:38;6.20;99.90
3792;DHT22;1911;53.768;11.474;2024-03-29T03:48:08;6.20;99.90
3792;DHT22;1911;53.768;11.474;2024-03-29T03:50:35;6.20;99.90
3792;DHT22;1911;53.768;11.474;2024-03-29T03:53:01;6.20;99.90
3792;DHT22;1911;53.768;11.474;2024-03-29T03:55:27;6.10;99.90
3792;DHT22;1911;53.768;11.474;2024-03-29T03:57:53;6.10;99.90
3792;DHT22;1911;53.768;11.474;2024-03-29T04:00:20;6.10;99.90
3792;DHT22;1911;53.768;11.474;2024-03-29T04:02:49;6.10;99.90
3792;DHT22;1911;53.768;11.474;2024-03-29T04:05:19;6.00;99.90
3792;DHT22;1911;53.768;11.474;2024-03-29T04:07:45;6.10;99.90
3792;DHT22;1911;53.768;11.474;2024-03-29T04:10:11;6.10;99.90
3792;DHT22;1911;53.768;11.474;2024-03-29T04:12:37;6.10;99.90
3792;DHT22;1911;53.768;11.474;2024-03-29T04:15:03;6.10;99.90
3792;DHT22;1911;53.768;11.474;2024-03-29T04:17:29;6.10;99.90
3792;DHT22;1911;53.768;11.474;2024-03-29T04:19:58;6.10;99.90
3792;DHT22;1911;53.768;11.474;2024-03-29T04:22:24;6.10;99.90
3792;DHT22;1911;53.768;11.474;2024-03-29T04:24:50;6.10;99.90
3792;DHT22;1911;53.768;11.474;2024-03-29T04:27:16;6.10;99.90
3792;DHT22;1911;53.768;11.474;2024-03-29T04:29:41;6.10;99.90
3792;DHT22;1911;53.768;11.474;2024-03-29T04:32:08;6.10;99.90
3792;DHT22;1911;53.768;11.474;2024-03-29T04:34:33;6.10;99.90
3792;DHT22;1911;53.768;11.474;2024-03-29T04:36:59;6.10;99.90
3792;DHT22;1911;53.768;11.474;2024-03-29T04:39:25;6.00;99.90
3792;DHT22;1911;53.768;11.474;2024-03-29T04:41:50;6.00;99.90
3792;DHT22;1911;53.768;11.474;2024-03-29T04:44:27;6.00;99.90
3792;DHT22;1911;53.768;11.474;2024-03-29T04:46:53;6.00;99.90
3792;DHT22;1911;53.768;11.474;2024-03-29T04:49:21;6.00;99.90
3792;DHT22;1911;53.768;11.474;2024-03-29T04:51:51;6.00;99.90
3792;DHT22;1911;53.768;11.474;2024-03-29T04:54:17;6.00;99.90
3792;DHT22;1911;53.768;11.474;2024-03-29T04:56:43;6.00;99.90
3792;DHT22;1911;53.768;11.474;2024-03-29T04:59:09;6.00;99.90
3792;DHT22;1911;53.768;11.474;2024-03-29T05:01:37;6.00;99.90
3792;DHT22;1911;53.768;11.474;2024-03-29T05:04:03;6.00;99.90
3792;DHT22;1911;53.768;11.474;2024-03-29T05:06:29;6.00;99.90
3792;DHT22;1911;53.768;11.474;2024-03-29T05:08:55;6.00;99.90
3792;DHT22;1911;53.768;11.474;2024-03-29T05:11:21;6.00;99.90
3792;DHT22;1911;53.768;11.474;2024-03-29T05:13:47;6.00;99.90
3792;DHT22;1911;53.768;11.474;2024-03-29T05:16:12;6.00;99.90
3792;DHT22;1911;53.768;11.474;2024-03-29T05:18:38;6.00;99.90
3792;DHT22;1911;53.768;11.474;2024-03-29T05:21:04;6.00;99.90
3792;DHT22;1911;53.768;11.474;2024-03-29T05:23:30;6.00;99.90
3792;DHT22;1911;53.768;11.474;2024-03-29T05:25:55;6.00;99.90
3792;DHT22;1911;53.768;11.474;2024-03-29T05:28:21;6.00;99.90
3792;DHT22;1911;53.768;11.474;2024-03-29T05:30:47;6.00;99.90
3792;DHT22;1911;53.768;11.474;2024-03-29T05:33:12;5.90;99.90
3792;DHT22;1911;53.768;11.474;2024-03-29T05:35:38;6.00;99.90
3792;DHT22;1911;53.768;11.474;2024-03-29T05:38:04;6.00;99.90
3792;DHT22;1911;53.768;11.474;2024-03-29T05:40:29;6.00;99.90
3792;DHT22;1911;53.768;11.474;2024-03-29T05:42:55;6.00;99.90
3792;DHT22;1911;53.768;11.474;2024-03-29T05:45:26;6.10;99.90
3792;DHT22;1911;53.768;11.474;2024-03-29T05:47:56;6.00;99.90
3792;DHT22;1911;53.768;11.474;2024-03-29T05:50:23;6.10;99.90
3792;DHT22;1911;53.768;11.474;2024-03-29T05:52:49;6.10;99.90
3792;DHT22;1911;53.768;11.474;2024-03-29T05:55:15;6.10;99.90
3792;DHT22;1911;53.768;11.474;2024-03-29T05:57:41;6.10;99.90
3792;DHT22;1911;53.768;11.474;2024-03-29T06:00:08;6.10;99.90
3792;DHT22;1911;53.768;11.474;2024-03-29T06:02:36;6.10;99.90
3792;DHT22;1911;53.768;11.474;2024-03-29T06:05:02;6.10;99.90
3792;DHT22;1911;53.768;11.474;2024-03-29T06:07:27;6.10;99.90
3792;DHT22;1911;53.768;11.474;2024-03-29T06:09:54;6.10;99.90
3792;DHT22;1911;53.768;11.474;2024-03-29T06:12:20;6.20;99.90
3792;DHT22;1911;53.768;11.474;2024-03-29T06:14:46;6.20;99.90
3792;DHT22;1911;53.768;11.474;2024-03-29T06:17:30;6.20;99.90
3792;DHT22;1911;53.768;11.474;2024-03-29T06:19:56;6.30;99.90
3792;DHT22;1911;53.768;11.474;2024-03-29T06:22:23;6.30;99.90
3792;DHT22;1911;53.768;11.474;2024-03-29T06:24:50;6.40;99.90
3792;DHT22;1911;53.768;11.474;2024-03-29T06:27:17;6.40;99.90
3792;DHT22;1911;53.768;11.474;2024-03-29T06:29:46;6.40;99.90
3792;DHT22;1911;53.768;11.474;2024-03-29T06:32:12;6.40;99.90
3792;DHT22;1911;53.768;11.474;2024-03-29T06:34:38;6.40;99.90
3792;DHT22;1911;53.768;11.474;2024-03-29T06:37:03;6.40;99.90
3792;DHT22;1911;53.768;11.474;2024-03-29T06:39:30;6.50;99.90
3792;DHT22;1911;53.768;11.474;2024-03-29T06:41:56;6.50;99.90
3792;DHT22;1911;53.768;11.474;2024-03-29T06:44:21;6.50;99.90
3792;DHT22;1911;53.768;11.474;2024-03-29T06:46:47;6.50;99.90
3792;DHT22;1911;53.768;11.474;2024-03-29T06:49:13;6.60;99.90
3792;DHT22;1911;53.768;11.474;2024-03-29T06:51:41;6.50;99.90
3792;DHT22;1911;53.768;11.474;2024-03-29T06:54:07;6.50;99.90
3792;DHT22;1911;53.768;11.474;2024-03-29T06:56:32;6.60;99.90
3792;DHT22;1911;53.768;11.474;2024-03-29T06:58:58;6.60;99.90
3792;DHT22;1911;53.768;11.474;2024-03-29T07:01:24;6.60;99.90
3792;DHT22;1911;53.768;11.474;2024-03-29T07:03:50;6.60;99.90
3792;DHT22;1911;53.768;11.474;2024-03-29T07:06:15;6.70;99.90
3792;DHT22;1911;53.768;11.474;2024-03-29T07:08:41;6.70;99.90
3792;DHT22;1911;53.768;11.474;2024-03-29T07:11:06;6.70;99.90
3792;DHT22;1911;53.768;11.474;2024-03-29T07:13:32;6.70;99.90
3792;DHT22;1911;53.768;11.474;2024-03-29T07:16:01;6.80;99.90
3792;DHT22;1911;53.768;11.474;2024-03-29T07:18:27;6.80;99.90
3792;DHT22;1911;53.768;11.474;2024-03-29T07:20:53;6.80;99.90
3792;DHT22;1911;53.768;11.474;2024-03-29T07:23:18;6.90;99.90
3792;DHT22;1911;53.768;11.474;2024-03-29T07:25:45;6.90;99.90
3792;DHT22;1911;53.768;11.474;2024-03-29T07:28:11;6.90;99.90
3792;DHT22;1911;53.768;11.474;2024-03-29T07:30:42;6.90;99.90
3792;DHT22;1911;53.768;11.474;2024-03-29T07:33:09;6.90;99.90
3792;DHT22;1911;53.768;11.474;2024-03-29T07:35:36;6.90;99.90
3792;DHT22;1911;53.768;11.474;2024-03-29T07:38:03;7.00;99.90
3792;DHT22;1911;53.768;11.474;2024-03-29T07:40:29;7.00;99.90
3792;DHT22;1911;53.768;11.474;2024-03-29T07:42:54;7.00;99.90
3792;DHT22;1911;53.768;11.474;2024-03-29T07:45:21;7.00;99.90
3792;DHT22;1911;53.768;11.474;2024-03-29T07:47:46;7.00;99.90
3792;DHT22;1911;53.768;11.474;2024-03-29T07:50:18;7.00;99.90
3792;DHT22;1911;53.768;11.474;2024-03-29T07:52:47;7.00;99.90
3792;DHT22;1911;53.768;11.474;2024-03-29T07:55:13;7.10;99.90
3792;DHT22;1911;53.768;11.474;2024-03-29T07:57:38;7.20;99.90
3792;DHT22;1911;53.768;11.474;2024-03-29T08:00:05;7.20;99.90
3792;DHT22;1911;53.768;11.474;2024-03-29T08:02:32;7.20;99.90
3792;DHT22;1911;53.768;11.474;2024-03-29T08:04:58;7.20;99.90
3792;DHT22;1911;53.768;11.474;2024-03-29T08:07:24;7.20;99.90
3792;DHT22;1911;53.768;11.474;2024-03-29T08:09:49;7.30;99.90
3792;DHT22;1911;53.768;11.474;2024-03-29T08:12:16;7.30;99.90
3792;DHT22;1911;53.768;11.474;2024-03-29T08:14:42;7.40;99.90
3792;DHT22;1911;53.768;11.474;2024-03-29T08:17:07;7.40;99.90
3792;DHT22;1911;53.768;11.474;2024-03-29T08:19:36;7.50;99.90
3792;DHT22;1911;53.768;11.474;2024-03-29T08:22:05;7.50;99.90
3792;DHT22;1911;53.768;11.474;2024-03-29T08:24:30;7.60;99.90
3792;DHT22;1911;53.768;11.474;2024-03-29T08:26:56;7.70;99.90
3792;DHT22;1911;53.768;11.474;2024-03-29T08:29:24;7.80;99.90
3792;DHT22;1911;53.768;11.474;2024-03-29T08:31:49;7.90;99.90
3792;DHT22;1911;53.768;11.474;2024-03-29T08:34:15;8.10;99.90
3792;DHT22;1911;53.768;11.474;2024-03-29T08:36:41;8.20;99.90
3792;DHT22;1911;53.768;11.474;2024-03-29T08:39:06;8.30;99.90
3792;DHT22;1911;53.768;11.474;2024-03-29T08:41:32;8.40;99.90
3792;DHT22;1911;53.768;11.474;2024-03-29T08:43:57;8.50;99.90
3792;DHT22;1911;53.768;11.474;2024-03-29T08:46:23;8.60;99.90
3792;DHT22;1911;53.768;11.474;2024-03-29T08:48:49;8.70;99.90
3792;DHT22;1911;53.768;11.474;2024-03-29T08:51:14;8.80;99.90
3792;DHT22;1911;53.768;11.474;2024-03-29T08:53:41;8.90;99.90
3792;DHT22;1911;53.768;11.474;2024-03-29T08:56:06;9.00;99.90
3792;DHT22;1911;53.768;11.474;2024-03-29T08:58:32;9.00;99.90
3792;DHT22;1911;53.768;11.474;2024-03-29T09:00:58;9.10;99.90
3792;DHT22;1911;53.768;11.474;2024-03-29T09:03:24;9.10;99.90
3792;DHT22;1911;53.768;11.474;2024-03-29T09:05:50;9.10;99.90
3792;DHT22;1911;53.768;11.474;2024-03-29T09:08:17;9.20;99.90
3792;DHT22;1911;53.768;11.474;2024-03-29T09:10:43;9.20;99.90
3792;DHT22;1911;53.768;11.474;2024-03-29T09:13:09;9.20;99.90
3792;DHT22;1911;53.768;11.474;2024-03-29T09:15:36;9.20;99.90
3792;DHT22;1911;53.768;11.474;2024-03-29T09:18:01;9.10;99.90
3792;DHT22;1911;53.768;11.474;2024-03-29T09:20:35;9.20;99.90
3792;DHT22;1911;53.768;11.474;2024-03-29T09:23:01;9.10;99.90
3792;DHT22;1911;53.768;11.474;2024-03-29T09:25:27;9.10;99.90
3792;DHT22;1911;53.768;11.474;2024-03-29T09:27:52;9.00;99.90
3792;DHT22;1911;53.768;11.474;2024-03-29T09:30:18;8.90;99.90
3792;DHT22;1911;53.768;11.474;2024-03-29T09:32:45;8.70;99.90
3792;DHT22;1911;53.768;11.474;2024-03-29T09:35:10;8.70;99.90
3792;DHT22;1911;53.768;11.474;2024-03-29T09:37:36;8.60;99.90
3792;DHT22;1911;53.768;11.474;2024-03-29T09:40:03;8.60;99.90
3792;DHT22;1911;53.768;11.474;2024-03-29T09:42:31;8.50;99.90
3792;DHT22;1911;53.768;11.474;2024-03-29T09:44:59;8.40;99.90
3792;DHT22;1911;53.768;11.474;2024-03-29T09:47:25;8.30;99.90
3792;DHT22;1911;53.768;11.474;2024-03-29T09:49:53;8.20;99.90
3792;DHT22;1911;53.768;11.474;2024-03-29T09:52:20;8.10;99.90
3792;DHT22;1911;53.768;11.474;2024-03-29T09:54:46;8.10;99.90
3792;DHT22;1911;53.768;11.474;2024-03-29T09:57:12;8.00;99.90
3792;DHT22;1911;53.768;11.474;2024-03-29T09:59:42;8.00;99.90
3792;DHT22;1911;53.768;11.474;2024-03-29T10:02:17;8.00;99.90
3792;DHT22;1911;53.768;11.474;2024-03-29T10:04:46;7.90;99.90
3792;DHT22;1911;53.768;11.474;2024-03-29T10:07:13;7.90;99.90
3792;DHT22;1911;53.768;11.474;2024-03-29T10:09:42;7.90;99.90
3792;DHT22;1911;53.768;11.474;2024-03-29T10:12:08;7.90;99.90
3792;DHT22;1911;53.768;11.474;2024-03-29T10:14:47;7.90;99.90
3792;DHT22;1911;53.768;11.474;2024-03-29T10:17:18;7.90;99.90
3792;DHT22;1911;53.768;11.474;2024-03-29T10:19:45;7.90;99.90
3792;DHT22;1911;53.768;11.474;2024-03-29T10:22:11;7.90;99.90
3792;DHT22;1911;53.768;11.474;2024-03-29T10:24:37;7.90;99.90
3792;DHT22;1911;53.768;11.474;2024-03-29T10:27:03;7.90;99.90
3792;DHT22;1911;53.768;11.474;2024-03-29T10:29:29;7.90;99.90
3792;DHT22;1911;53.768;11.474;2024-03-29T10:31:58;7.90;99.90
3792;DHT22;1911;53.768;11.474;2024-03-29T10:34:27;7.90;99.90
3792;DHT22;1911;53.768;11.474;2024-03-29T10:36:54;7.90;99.90
3792;DHT22;1911;53.768;11.474;2024-03-29T10:39:21;7.90;99.90
3792;DHT22;1911;53.768;11.474;2024-03-29T10:41:47;7.90;99.90
3792;DHT22;1911;53.768;11.474;2024-03-29T10:44:13;7.90;99.90
3792;DHT22;1911;53.768;11.474;2024-03-29T10:46:40;7.90;99.90
3792;DHT22;1911;53.768;11.474;2024-03-29T10:49:09;7.90;99.90
3792;DHT22;1911;53.768;11.474;2024-03-29T10:51:39;7.90;99.90
3792;DHT22;1911;53.768;11.474;2024-03-29T10:54:08;7.90;99.90
3792;DHT22;1911;53.768;11.474;2024-03-29T10:56:35;7.90;99.90
3792;DHT22;1911;53.768;11.474;2024-03-29T10:59:24;7.90;99.90
3792;DHT22;1911;53.768;11.474;2024-03-29T11:01:59;8.00;99.90
3792;DHT22;1911;53.768;11.474;2024-03-29T11:04:33;8.00;99.90
3792;DHT22;1911;53.768;11.474;2024-03-29T11:07:03;8.00;99.90
3792;DHT22;1911;53.768;11.474;2024-03-29T11:09:31;8.00;99.90
3792;DHT22;1911;53.768;11.474;2024-03-29T11:12:01;8.10;99.90
3792;DHT22;1911;53.768;11.474;2024-03-29T11:14:35;8.10;99.90
3792;DHT22;1911;53.768;11.474;2024-03-29T11:17:03;8.10;99.90
3792;DHT22;1911;53.768;11.474;2024-03-29T11:19:29;8.10;99.90
3792;DHT22;1911;53.768;11.474;2024-03-29T11:21:56;8.20;99.90
3792;DHT22;1911;53.768;11.474;2024-03-29T11:24:22;8.30;99.90
3792;DHT22;1911;53.768;11.474;2024-03-29T11:26:48;8.30;99.90
3792;DHT22;1911;53.768;11.474;2024-03-29T11:29:21;8.40;99.90
3792;DHT22;1911;53.768;11.474;2024-03-29T11:31:47;8.60;99.90
3792;DHT22;1911;53.768;11.474;2024-03-29T11:34:19;8.70;99.90
3792;DHT22;1911;53.768;11.474;2024-03-29T11:36:45;8.80;99.90
3792;DHT22;1911;53.768;11.474;2024-03-29T11:39:20;8.90;99.90
3792;DHT22;1911;53.768;11.474;2024-03-29T11:41:50;9.00;99.90
3792;DHT22;1911;53.768;11.474;2024-03-29T11:44:16;9.00;99.90
3792;DHT22;1911;53.768;11.474;2024-03-29T11:46:43;9.10;99.90
3792;DHT22;1911;53.768;11.474;2024-03-29T11:49:09;9.20;99.90
3792;DHT22;1911;53.768;11.474;2024-03-29T11:51:35;9.30;99.90
3792;DHT22;1911;53.768;11.474;2024-03-29T11:54:01;9.40;99.90
3792;DHT22;1911;53.768;11.474;2024-03-29T11:56:28;9.50;99.90
3792;DHT22;1911;53.768;11.474;2024-03-29T11:58:53;9.60;99.90
3792;DHT22;1911;53.768;11.474;2024-03-29T12:01:25;10.00;99.90
3792;DHT22;1911;53.768;11.474;2024-03-29T12:03:51;10.20;99.90
3792;DHT22;1911;53.768;11.474;2024-03-29T12:06:16;10.30;99.90
3792;DHT22;1911;53.768;11.474;2024-03-29T12:08:44;10.30;99.90
3792;DHT22;1911;53.768;11.474;2024-03-29T12:11:10;10.20;99.90
3792;DHT22;1911;53.768;11.474;2024-03-29T12:13:36;10.20;99.90
3792;DHT22;1911;53.768;11.474;2024-03-29T12:16:02;10.10;99.90
3792;DHT22;1911;53.768;11.474;2024-03-29T12:18:28;10.10;99.90
3792;DHT22;1911;53.768;11.474;2024-03-29T12:20:57;10.10;99.90
3792;DHT22;1911;53.768;11.474;2024-03-29T12:23:23;10.10;99.90
3792;DHT22;1911;53.768;11.474;2024-03-29T12:25:49;10.00;99.90
3792;DHT22;1911;53.768;11.474;2024-03-29T12:28:16;10.20;99.90
3792;DHT22;1911;53.768;11.474;2024-03-29T12:30:46;10.30;99.90
3792;DHT22;1911;53.768;11.474;2024-03-29T12:33:20;10.40;99.90
3792;DHT22;1911;53.768;11.474;2024-03-29T12:35:50;10.40;99.90
3792;DHT22;1911;53.768;11.474;2024-03-29T12:38:19;10.40;99.90
3792;DHT22;1911;53.768;11.474;2024-03-29T12:40:46;10.30;99.90
3792;DHT22;1911;53.768;11.474;2024-03-29T12:43:19;10.30;99.90
3792;DHT22;1911;53.768;11.474;2024-03-29T12:45:46;10.40;99.90
3792;DHT22;1911;53.768;11.474;2024-03-29T12:48:16;10.40;99.90
3792;DHT22;1911;53.768;11.474;2024-03-29T12:50:43;10.50;99.90
3792;DHT22;1911;53.768;11.474;2024-03-29T12:53:10;10.60;99.90
3792;DHT22;1911;53.768;11.474;2024-03-29T12:55:37;10.60;99.90
3792;DHT22;1911;53.768;11.474;2024-03-29T12:58:05;10.70;99.90
3792;DHT22;1911;53.768;11.474;2024-03-29T13:00:34;10.60;99.90
3792;DHT22;1911;53.768;11.474;2024-03-29T13:03:00;10.50;99.90
3792;DHT22;1911;53.768;11.474;2024-03-29T13:05:26;10.50;99.90
3792;DHT22;1911;53.768;11.474;2024-03-29T13:07:53;10.50;99.90
3792;DHT22;1911;53.768;11.474;2024-03-29T13:10:19;10.50;99.90
3792;DHT22;1911;53.768;11.474;2024-03-29T13:12:46;10.50;99.90
3792;DHT22;1911;53.768;11.474;2024-03-29T13:15:26;10.50;99.90
3792;DHT22;1911;53.768;11.474;2024-03-29T13:17:53;10.50;99.90
3792;DHT22;1911;53.768;11.474;2024-03-29T13:20:19;10.50;99.90
3792;DHT22;1911;53.768;11.474;2024-03-29T13:22:46;10.50;99.90
3792;DHT22;1911;53.768;11.474;2024-03-29T13:25:14;10.40;99.90
3792;DHT22;1911;53.768;11.474;2024-03-29T13:27:41;10.50;99.90
3792;DHT22;1911;53.768;11.474;2024-03-29T13:30:08;10.50;99.90
3792;DHT22;1911;53.768;11.474;2024-03-29T13:32:38;10.40;99.90
3792;DHT22;1911;53.768;11.474;2024-03-29T13:35:05;10.50;99.90
3792;DHT22;1911;53.768;11.474;2024-03-29T13:37:32;10.50;99.90
3792;DHT22;1911;53.768;11.474;2024-03-29T13:39:57;10.50;99.90
3792;DHT22;1911;53.768;11.474;2024-03-29T13:42:23;10.60;99.90
3792;DHT22;1911;53.768;11.474;2024-03-29T13:44:52;10.70;99.90
3792;DHT22;1911;53.768;11.474;2024-03-29T13:47:18;10.70;99.90
3792;DHT22;1911;53.768;11.474;2024-03-29T13:49:45;10.70;99.90
3792;DHT22;1911;53.768;11.474;2024-03-29T13:52:12;10.80;99.90
3792;DHT22;1911;53.768;11.474;2024-03-29T13:54:42;10.80;99.90
3792;DHT22;1911;53.768;11.474;2024-03-29T13:57:08;10.90;99.90
3792;DHT22;1911;53.768;11.474;2024-03-29T13:59:35;11.00;99.90
3792;DHT22;1911;53.768;11.474;2024-03-29T14:02:00;11.10;99.90
3792;DHT22;1911;53.768;11.474;2024-03-29T14:04:26;11.10;99.90
3792;DHT22;1911;53.768;11.474;2024-03-29T14:06:51;11.10;99.90
3792;DHT22;1911;53.768;11.474;2024-03-29T14:09:17;11.10;99.90
3792;DHT22;1911;53.768;11.474;2024-03-29T14:11:43;11.10;99.90
3792;DHT22;1911;53.768;11.474;2024-03-29T14:14:09;11.10;99.90
3792;DHT22;1911;53.768;11.474;2024-03-29T14:16:37;11.20;99.90
3792;DHT22;1911;53.768;11.474;2024-03-29T14:19:03;11.20;99.90
3792;DHT22;1911;53.768;11.474;2024-03-29T14:21:29;11.20;99.90
3792;DHT22;1911;53.768;11.474;2024-03-29T14:23:55;11.20;99.90
3792;DHT22;1911;53.768;11.474;2024-03-29T14:26:21;11.30;99.90
3792;DHT22;1911;53.768;11.474;2024-03-29T14:28:47;11.40;99.90
3792;DHT22;1911;53.768;11.474;2024-03-29T14:31:13;11.50;99.90
3792;DHT22;1911;53.768;11.474;2024-03-29T14:33:38;11.50;99.90
3792;DHT22;1911;53.768;11.474;2024-03-29T14:36:04;11.40;99.90
3792;DHT22;1911;53.768;11.474;2024-03-29T14:38:29;11.30;99.90
3792;DHT22;1911;53.768;11.474;2024-03-29T14:40:55;11.30;99.90
3792;DHT22;1911;53.768;11.474;2024-03-29T14:43:21;11.10;99.90
3792;DHT22;1911;53.768;11.474;2024-03-29T14:45:46;11.00;99.90
3792;DHT22;1911;53.768;11.474;2024-03-29T14:48:15;10.90;99.90
3792;DHT22;1911;53.768;11.474;2024-03-29T14:50:42;10.80;99.90
3792;DHT22;1911;53.768;11.474;2024-03-29T14:53:07;10.70;99.90
3792;DHT22;1911;53.768;11.474;2024-03-29T14:55:33;10.60;99.90
3792;DHT22;1911;53.768;11.474;2024-03-29T14:57:58;10.50;99.90
3792;DHT22;1911;53.768;11.474;2024-03-29T15:00:24;10.30;99.90
3792;DHT22;1911;53.768;11.474;2024-03-29T15:02:50;10.30;99.90
3792;DHT22;1911;53.768;11.474;2024-03-29T15:05:19;10.30;99.90
3792;DHT22;1911;53.768;11.474;2024-03-29T15:07:44;10.30;99.90
3792;DHT22;1911;53.768;11.474;2024-03-29T15:10:10;10.30;99.90
3792;DHT22;1911;53.768;11.474;2024-03-29T15:12:40;10.20;99.90
3792;DHT22;1911;53.768;11.474;2024-03-29T15:35:43;10.50;99.90
3792;DHT22;1911;53.768;11.474;2024-03-29T15:38:09;10.50;99.90
3792;DHT22;1911;53.768;11.474;2024-03-29T15:40:37;10.50;99.90
3792;DHT22;1911;53.768;11.474;2024-03-29T15:43:02;10.50;99.90
3792;DHT22;1911;53.768;11.474;2024-03-29T15:45:28;10.50;99.90
3792;DHT22;1911;53.768;11.474;2024-03-29T15:47:54;10.40;99.90
3792;DHT22;1911;53.768;11.474;2024-03-29T15:50:19;10.50;99.90
3792;DHT22;1911;53.768;11.474;2024-03-29T15:52:45;10.30;99.90
3792;DHT22;1911;53.768;11.474;2024-03-29T15:55:11;10.30;99.90
3792;DHT22;1911;53.768;11.474;2024-03-29T15:57:36;10.40;99.90
3792;DHT22;1911;53.768;11.474;2024-03-29T16:00:02;10.40;99.90
3792;DHT22;1911;53.768;11.474;2024-03-29T16:02:28;10.40;99.90
3792;DHT22;1911;53.768;11.474;2024-03-29T16:04:53;10.60;99.90
3792;DHT22;1911;53.768;11.474;2024-03-29T16:07:19;10.70;99.90
3792;DHT22;1911;53.768;11.474;2024-03-29T16:09:45;10.80;99.90
3792;DHT22;1911;53.768;11.474;2024-03-29T16:12:10;10.60;99.90
3792;DHT22;1911;53.768;11.474;2024-03-29T16:14:36;10.40;99.90